Time;durP1;ratioP1;P1;durP2;ratioP2;P2;SDS_P1;SDS_P2;PMS_P1;PMS_P2;Temp;Humidity;BMP_temperature;BMP_pressure;BME280_temperature;BME280_humidity;BME280_pressure;Samples;Min_cycle;Max_cycle;Signal;HPM_P1;HPM_P2
2023/08/07 00:00:21;;;;;;;7.33;6.20;;;13.10;99.90;;;;;;8400072;28;20188;-69
2023/08/07 00:04:21;;;;;;;8.70;7.90;;;13.10;99.90;;;;;;8395969;28;20185;-70
2023/08/07 00:08:22;;;;;;;9.60;8.53;;;13.20;99.90;;;;;;8399016;28;20212;-69
2023/08/07 00:12:23;;;;;;;9.40;7.30;;;13.20;99.90;;;;;;8397111;28;20218;-72
2023/08/07 00:16:23;;;;;;;9.80;8.13;;;13.20;99.90;;;;;;8395692;28;20208;-71
2023/08/07 00:20:24;;;;;;;9.07;8.23;;;13.20;99.90;;;;;;8400932;28;20189;-71
2023/08/07 00:24:25;;;;;;;8.73;7.87;;;13.20;99.90;;;;;;8398255;28;20501;-69
2023/08/07 00:28:26;;;;;;;10.03;9.00;;;13.20;99.90;;;;;;8396531;28;20177;-68
2023/08/07 00:32:26;;;;;;;10.33;9.10;;;13.20;99.90;;;;;;8401187;28;20189;-69
2023/08/07 00:36:31;;;;;;;9.97;8.97;;;13.30;99.90;;;;;;8397702;28;20214;-70
2023/08/07 00:40:41;;;;;;;9.13;8.20;;;13.30;99.90;;;;;;8399075;28;20339;-69
2023/08/07 00:44:41;;;;;;;12.67;8.23;;;13.40;99.90;;;;;;8395973;28;20216;-69
2023/08/07 00:48:42;;;;;;;11.80;7.83;;;13.50;99.90;;;;;;8394731;28;20341;-69
2023/08/07 00:52:43;;;;;;;8.53;7.17;;;13.60;99.90;;;;;;8401285;28;20267;-70
2023/08/07 00:56:44;;;;;;;8.70;6.87;;;13.60;99.90;;;;;;8409179;28;20205;-72
2023/08/07 01:00:45;;;;;;;8.03;6.57;;;13.60;99.90;;;;;;8399693;28;20257;-71
2023/08/07 01:04:46;;;;;;;7.00;6.30;;;13.70;99.90;;;;;;8393155;28;20285;-69
2023/08/07 01:08:47;;;;;;;7.73;6.37;;;13.70;99.90;;;;;;8398697;28;20315;-70
2023/08/07 01:12:56;;;;;;;7.67;6.20;;;13.70;99.90;;;;;;8396410;28;20273;-69
2023/08/07 01:17:15;;;;;;;6.73;5.77;;;13.80;99.90;;;;;;8394196;28;20220;-69
2023/08/07 01:21:19;;;;;;;7.37;6.00;;;13.80;99.90;;;;;;8395037;28;20216;-70
2023/08/07 01:25:20;;;;;;;5.90;5.30;;;13.80;99.90;;;;;;8375751;28;20192;-71
2023/08/07 01:29:28;;;;;;;6.67;5.20;;;13.80;99.90;;;;;;8397257;28;20211;-70
2023/08/07 01:33:37;;;;;;;7.10;5.53;;;13.80;99.90;;;;;;8395945;28;20257;-71
2023/08/07 01:37:41;;;;;;;4.97;4.47;;;13.90;99.90;;;;;;8393992;28;20211;-70
2023/08/07 01:41:42;;;;;;;4.80;4.40;;;13.90;99.90;;;;;;8395171;28;20180;-70
2023/08/07 01:45:43;;;;;;;6.10;5.50;;;13.90;99.90;;;;;;8389531;28;20204;-70
2023/08/07 01:49:44;;;;;;;5.50;5.00;;;13.90;99.90;;;;;;8390747;28;20180;-68
2023/08/07 01:53:45;;;;;;;5.27;4.77;;;13.90;99.90;;;;;;8392386;28;20278;-68
2023/08/07 01:57:48;;;;;;;5.43;4.90;;;14.00;99.90;;;;;;8389272;28;20213;-69
2023/08/07 02:01:48;;;;;;;5.50;4.87;;;14.00;99.90;;;;;;8388149;28;20181;-69
2023/08/07 02:05:49;;;;;;;5.70;5.07;;;14.00;99.90;;;;;;8389314;28;20180;-69
2023/08/07 02:09:50;;;;;;;6.10;5.50;;;13.90;99.90;;;;;;8391876;28;20205;-70
2023/08/07 02:13:51;;;;;;;5.87;5.27;;;13.90;99.90;;;;;;8392750;28;20207;-68
2023/08/07 02:17:51;;;;;;;7.20;4.73;;;13.90;99.90;;;;;;8385490;28;20331;-68
2023/08/07 02:21:52;;;;;;;6.87;5.37;;;13.90;99.90;;;;;;8396262;28;20180;-66
2023/08/07 02:25:53;;;;;;;5.80;5.20;;;13.90;99.90;;;;;;8391280;28;20211;-67
2023/08/07 02:29:54;;;;;;;4.87;4.33;;;13.90;99.90;;;;;;8392030;28;20181;-64
2023/08/07 02:33:55;;;;;;;3.90;3.60;;;13.90;99.90;;;;;;8386111;28;20188;-64
2023/08/07 02:37:55;;;;;;;3.33;3.03;;;13.80;99.90;;;;;;8386229;28;20357;-64
2023/08/07 02:41:56;;;;;;;5.27;4.40;;;13.70;99.90;;;;;;8397953;28;20192;-63
2023/08/07 02:45:57;;;;;;;5.30;3.20;;;13.70;99.90;;;;;;8390210;28;20211;-63
2023/08/07 02:49:59;;;;;;;4.03;3.10;;;13.60;99.90;;;;;;8393573;28;20220;-66
2023/08/07 02:53:59;;;;;;;3.07;2.87;;;13.50;99.90;;;;;;8384989;28;20185;-66
2023/08/07 02:58:00;;;;;;;3.53;3.20;;;13.50;99.90;;;;;;8387065;28;20273;-65
2023/08/07 03:02:01;;;;;;;3.20;2.90;;;13.50;99.90;;;;;;8389132;28;20181;-62
2023/08/07 03:06:02;;;;;;;2.80;2.60;;;13.50;99.90;;;;;;8396957;28;20184;-65
2023/08/07 03:10:04;;;;;;;3.20;2.90;;;13.50;99.90;;;;;;8393048;28;20329;-65
2023/08/07 03:14:04;;;;;;;3.67;2.63;;;13.40;99.90;;;;;;8401389;28;20192;-64
2023/08/07 03:18:05;;;;;;;3.87;3.27;;;13.40;99.90;;;;;;8400887;28;20297;-66
2023/08/07 03:22:06;;;;;;;4.67;3.10;;;13.30;99.90;;;;;;8397196;28;20180;-64
2023/08/07 03:26:10;;;;;;;3.57;3.27;;;13.30;99.90;;;;;;8398350;28;20188;-66
2023/08/07 03:30:11;;;;;;;3.60;3.30;;;13.30;99.90;;;;;;8397936;28;20255;-62
2023/08/07 03:34:12;;;;;;;3.73;3.43;;;13.30;99.90;;;;;;8398508;28;20264;-64
2023/08/07 03:38:13;;;;;;;5.10;4.70;;;13.30;99.90;;;;;;8398585;28;20515;-64
2023/08/07 03:42:15;;;;;;;8.87;5.73;;;13.30;99.90;;;;;;8397983;28;20430;-63
2023/08/07 03:46:16;;;;;;;6.13;5.53;;;13.30;99.90;;;;;;8399005;28;20436;-64
2023/08/07 03:50:16;;;;;;;5.93;5.37;;;13.30;99.90;;;;;;8395725;28;20269;-65
2023/08/07 03:54:17;;;;;;;7.63;6.13;;;13.30;99.90;;;;;;8399542;28;20189;-65
2023/08/07 03:58:18;;;;;;;6.63;6.03;;;13.30;99.90;;;;;;8394819;28;20216;-64
2023/08/07 04:02:19;;;;;;;7.90;6.20;;;13.30;99.90;;;;;;8402361;28;20241;-66
2023/08/07 04:06:20;;;;;;;7.20;5.67;;;13.40;99.90;;;;;;8399418;28;20184;-63
2023/08/07 04:10:21;;;;;;;6.50;5.20;;;13.40;99.90;;;;;;8400740;28;20323;-65
2023/08/07 04:14:22;;;;;;;6.00;5.00;;;13.50;99.90;;;;;;8395022;28;20184;-64
2023/08/07 04:18:23;;;;;;;6.00;5.40;;;13.50;99.90;;;;;;8397166;28;20209;-64
2023/08/07 04:22:24;;;;;;;5.30;4.80;;;13.60;99.90;;;;;;8393759;28;20294;-63
2023/08/07 04:26:25;;;;;;;6.60;4.97;;;13.60;99.90;;;;;;8394628;28;20176;-63
2023/08/07 04:30:26;;;;;;;5.10;4.60;;;13.60;99.90;;;;;;8397817;28;20189;-62
2023/08/07 04:34:26;;;;;;;4.40;4.00;;;13.70;99.90;;;;;;8393624;28;20196;-63
2023/08/07 04:38:27;;;;;;;5.77;4.90;;;13.90;99.90;;;;;;8397186;28;20252;-66
2023/08/07 04:42:28;;;;;;;5.33;4.60;;;13.90;99.90;;;;;;8394668;28;20468;-65
2023/08/07 04:46:28;;;;;;;4.67;3.80;;;14.00;99.90;;;;;;8399759;28;20224;-66
2023/08/07 04:50:29;;;;;;;4.57;4.17;;;14.10;99.90;;;;;;8400717;28;20200;-68
2023/08/07 04:54:30;;;;;;;4.30;3.87;;;14.10;99.90;;;;;;8390270;28;20353;-69
2023/08/07 04:58:31;;;;;;;5.57;4.13;;;14.30;99.90;;;;;;8393507;28;20217;-69
2023/08/07 05:02:32;;;;;;;4.90;3.73;;;14.30;99.90;;;;;;8395371;28;20180;-67
2023/08/07 05:06:33;;;;;;;6.37;3.63;;;14.40;99.90;;;;;;8388243;28;20517;-68
2023/08/07 05:10:33;;;;;;;4.20;3.23;;;14.40;99.90;;;;;;8395639;28;20228;-66
2023/08/07 05:14:34;;;;;;;4.53;3.37;;;14.50;99.90;;;;;;8397223;28;20188;-65
2023/08/07 05:18:35;;;;;;;3.30;3.00;;;14.60;99.90;;;;;;8397331;28;20239;-67
2023/08/07 05:22:35;;;;;;;3.47;2.90;;;14.60;99.90;;;;;;8400864;28;20220;-68
2023/08/07 05:26:36;;;;;;;4.37;3.20;;;14.60;99.90;;;;;;8392489;28;20200;-67
2023/08/07 05:30:37;;;;;;;5.20;3.20;;;14.70;99.90;;;;;;8396480;28;20288;-66
2023/08/07 05:34:38;;;;;;;4.00;3.60;;;14.80;99.90;;;;;;8395405;28;20181;-67
2023/08/07 05:38:39;;;;;;;3.50;3.03;;;14.90;99.90;;;;;;8395596;28;20236;-67
2023/08/07 05:42:41;;;;;;;4.83;2.90;;;15.20;99.90;;;;;;8394454;28;20180;-67
2023/08/07 05:46:42;;;;;;;3.50;2.90;;;15.60;99.90;;;;;;8395830;28;20201;-66
2023/08/07 05:50:43;;;;;;;7.03;3.23;;;15.80;99.90;;;;;;8392321;28;20219;-68
2023/08/07 05:54:43;;;;;;;4.37;3.20;;;16.00;99.90;;;;;;8389396;28;20192;-63
2023/08/07 05:58:45;;;;;;;3.63;3.33;;;16.30;99.90;;;;;;8391271;28;20204;-63
2023/08/07 06:02:45;;;;;;;4.70;2.90;;;16.70;99.90;;;;;;8396803;28;20187;-63
2023/08/07 06:06:46;;;;;;;3.30;2.67;;;17.10;99.90;;;;;;8396268;28;20188;-62
2023/08/07 06:10:47;;;;;;;3.97;2.93;;;16.80;99.90;;;;;;8391179;28;20212;-65
2023/08/07 06:14:48;;;;;;;5.53;3.30;;;16.40;99.90;;;;;;8392023;28;20181;-64
2023/08/07 06:18:49;;;;;;;3.97;3.53;;;16.30;99.90;;;;;;8393975;28;20208;-66
2023/08/07 06:22:49;;;;;;;4.83;3.33;;;16.30;99.90;;;;;;8395008;28;20184;-65
2023/08/07 06:26:50;;;;;;;4.00;3.10;;;16.30;99.90;;;;;;8390744;28;20211;-65
2023/08/07 06:30:51;;;;;;;5.13;3.43;;;16.30;99.90;;;;;;8393873;28;20226;-65
2023/08/07 06:34:52;;;;;;;3.90;3.50;;;16.30;99.90;;;;;;8392718;28;20215;-63
2023/08/07 06:38:53;;;;;;;5.50;3.60;;;16.30;99.90;;;;;;8391184;28;20217;-64
2023/08/07 06:42:54;;;;;;;3.57;3.07;;;16.50;99.90;;;;;;8388045;28;20195;-65
2023/08/07 06:46:58;;;;;;;3.80;3.50;;;16.70;99.90;;;;;;8392269;28;20196;-62
2023/08/07 06:51:01;;;;;;;3.83;3.47;;;16.70;99.90;;;;;;8397097;28;20574;-65
2023/08/07 06:55:01;;;;;;;4.23;3.17;;;16.60;99.90;;;;;;8397686;28;20194;-63
2023/08/07 06:59:02;;;;;;;7.40;3.40;;;16.50;99.90;;;;;;8397808;28;20251;-65
2023/08/07 07:03:04;;;;;;;4.23;3.27;;;16.50;99.90;;;;;;8402887;28;20287;-64
2023/08/07 07:07:05;;;;;;;5.13;3.37;;;16.50;99.90;;;;;;8399012;28;20188;-65
2023/08/07 07:11:05;;;;;;;6.33;3.77;;;16.60;99.90;;;;;;8399078;28;20439;-65
2023/08/07 07:15:06;;;;;;;5.77;3.30;;;16.80;99.90;;;;;;8400346;28;20184;-64
2023/08/07 07:19:09;;;;;;;4.43;3.03;;;17.10;99.90;;;;;;8403176;28;20239;-65
2023/08/07 07:23:12;;;;;;;6.47;2.77;;;17.30;99.90;;;;;;8402300;28;20185;-63
2023/08/07 07:27:13;;;;;;;3.97;2.77;;;17.40;99.90;;;;;;8397587;28;20306;-64
2023/08/07 07:31:14;;;;;;;4.10;3.20;;;17.30;99.90;;;;;;8402999;28;20718;-62
2023/08/07 07:35:15;;;;;;;3.33;3.00;;;17.20;99.90;;;;;;8400182;28;20192;-63
2023/08/07 07:39:16;;;;;;;5.27;3.00;;;17.00;99.90;;;;;;8401531;28;21615;-64
2023/08/07 07:43:16;;;;;;;5.30;3.03;;;16.80;99.90;;;;;;8397569;28;20192;-67
2023/08/07 07:47:17;;;;;;;3.53;2.90;;;17.00;99.90;;;;;;8401064;28;20201;-64
2023/08/07 07:51:18;;;;;;;3.30;3.00;;;17.30;99.90;;;;;;8394537;28;20200;-65
2023/08/07 07:55:19;;;;;;;6.40;3.10;;;17.50;99.90;;;;;;8396991;28;20189;-65
2023/08/07 07:59:20;;;;;;;3.97;2.87;;;17.50;99.90;;;;;;8398334;28;20716;-63
2023/08/07 08:03:22;;;;;;;4.77;3.07;;;17.10;99.90;;;;;;8396756;28;20270;-64
2023/08/07 08:07:22;;;;;;;5.93;3.13;;;17.30;99.90;;;;;;8402277;28;20193;-62
2023/08/07 08:11:23;;;;;;;6.13;2.47;;;17.60;99.90;;;;;;8399832;28;20219;-65
2023/08/07 08:15:24;;;;;;;3.57;2.60;;;17.80;99.90;;;;;;8399814;28;20188;-62
2023/08/07 08:19:25;;;;;;;2.60;2.20;;;17.90;99.90;;;;;;8397073;28;20204;-65
2023/08/07 08:23:26;;;;;;;3.90;2.17;;;17.90;99.90;;;;;;8394335;28;20193;-64
2023/08/07 08:27:27;;;;;;;7.10;2.53;;;18.10;46.90;;;;;;8397343;28;20391;-64
2023/08/07 08:31:27;;;;;;;2.73;2.07;;;18.60;59.70;;;;;;8399291;28;20197;-63
2023/08/07 08:35:28;;;;;;;4.77;2.27;;;18.70;42.50;;;;;;8397093;28;20606;-66
2023/08/07 08:39:29;;;;;;;3.47;2.37;;;18.80;10.60;;;;;;8411319;28;20224;-64
2023/08/07 08:43:35;;;;;;;4.17;2.33;;;18.60;21.50;;;;;;8401511;28;20188;-63
2023/08/07 08:47:37;;;;;;;5.00;2.20;;;18.50;22.80;;;;;;8410679;27;20253;-66
2023/08/07 08:51:37;;;;;;;2.27;1.90;;;18.60;10.50;;;;;;8396778;28;20193;-64
2023/08/07 08:55:42;;;;;;;2.20;1.80;;;19.00;1.00;;;;;;8392023;28;20311;-64
2023/08/07 08:59:44;;;;;;;3.37;1.87;;;18.90;1.00;;;;;;8410390;28;20215;-63
2023/08/07 09:03:45;;;;;;;3.43;1.73;;;18.90;1.00;;;;;;8392339;28;20184;-65
2023/08/07 09:07:48;;;;;;;2.70;1.70;;;19.10;1.00;;;;;;8399486;28;20193;-65
2023/08/07 09:11:51;;;;;;;3.27;1.60;;;19.30;1.00;;;;;;8398056;28;20215;-65
2023/08/07 09:15:53;;;;;;;3.33;1.73;;;19.60;1.00;;;;;;8393735;28;20212;-64
2023/08/07 09:19:53;;;;;;;3.03;1.60;;;19.70;1.00;;;;;;8393489;28;20233;-64
2023/08/07 09:23:54;;;;;;;2.03;1.50;;;19.20;1.00;;;;;;8392635;28;20187;-62
2023/08/07 09:27:56;;;;;;;1.90;1.67;;;18.50;1.00;;;;;;8394649;28;20241;-64
2023/08/07 09:31:57;;;;;;;2.93;1.43;;;18.80;1.00;;;;;;8398500;28;20192;-63
2023/08/07 09:36:00;;;;;;;2.23;1.70;;;19.00;1.00;;;;;;8393818;28;20271;-63
2023/08/07 09:40:01;;;;;;;2.20;1.67;;;19.20;1.00;;;;;;8395475;28;20377;-65
2023/08/07 09:44:13;;;;;;;3.03;1.80;;;19.30;1.00;;;;;;8395909;28;20270;-64
2023/08/07 09:48:15;;;;;;;2.03;1.60;;;19.20;1.00;;;;;;8393706;28;20219;-64
2023/08/07 09:52:15;;;;;;;2.83;1.87;;;19.40;1.00;;;;;;8394424;28;20486;-65
2023/08/07 09:56:18;;;;;;;2.23;1.87;;;19.90;1.00;;;;;;8396873;28;20200;-66
2023/08/07 10:00:21;;;;;;;3.73;1.60;;;20.20;1.00;;;;;;8394992;28;20279;-67
2023/08/07 10:04:23;;;;;;;3.13;1.60;;;20.20;1.00;;;;;;8394028;28;20197;-64
2023/08/07 10:08:24;;;;;;;2.60;1.80;;;20.20;1.00;;;;;;8394843;28;20204;-63
2023/08/07 10:12:27;;;;;;;1.67;1.43;;;20.10;1.00;;;;;;8391215;28;20216;-64
2023/08/07 10:16:29;;;;;;;2.97;1.50;;;19.90;1.00;;;;;;8397137;28;20220;-64
2023/08/07 10:20:30;;;;;;;2.40;1.60;;;19.60;1.00;;;;;;8387270;28;20188;-63
2023/08/07 10:24:31;;;;;;;3.40;1.40;;;19.70;1.00;;;;;;8394547;28;20192;-64
2023/08/07 10:28:37;;;;;;;2.00;1.30;;;20.20;1.00;;;;;;8394695;28;20284;-62
2023/08/07 10:32:39;;;;;;;2.80;1.70;;;19.90;1.00;;;;;;8385583;28;20200;-64
2023/08/07 10:36:40;;;;;;;5.50;1.77;;;19.10;1.00;;;;;;8393321;28;20231;-64
2023/08/07 10:41:02;;;;;;;2.23;1.43;;;18.60;1.00;;;;;;8392018;28;20201;-63
2023/08/07 10:45:04;;;;;;;3.07;1.57;;;18.10;1.00;;;;;;8391479;28;20284;-66
2023/08/07 10:49:05;;;;;;;2.60;1.70;;;17.70;64.20;;;;;;8393389;28;20193;-63
2023/08/07 10:53:06;;;;;;;3.37;2.10;;;17.40;99.90;;;;;;8389506;28;20189;-61
2023/08/07 10:57:11;;;;;;;4.53;2.40;;;16.70;99.90;;;;;;8390309;28;20220;-65
2023/08/07 11:01:27;;;;;;;2.50;2.30;;;16.20;1.00;;;;;;8409734;28;20182;-62
2023/08/07 11:05:28;;;;;;;2.90;2.47;;;16.20;99.90;;;;;;8389689;28;20197;-61
2023/08/07 11:09:28;;;;;;;3.10;2.80;;;16.30;99.90;;;;;;8393838;28;20212;-63
2023/08/07 11:13:29;;;;;;;3.23;2.70;;;16.50;99.90;;;;;;8391176;28;20193;-63
2023/08/07 11:17:30;;;;;;;7.10;2.73;;;16.80;99.90;;;;;;8393953;28;20209;-62
2023/08/07 11:21:32;;;;;;;2.40;2.20;;;17.10;99.90;;;;;;8395902;28;20192;-63
2023/08/07 11:25:33;;;;;;;2.73;2.40;;;17.10;1.00;;;;;;8400671;28;20186;-65
2023/08/07 11:29:37;;;;;;;3.23;2.20;;;17.40;1.00;;;;;;8392119;28;20189;-64
2023/08/07 11:33:38;;;;;;;2.70;2.13;;;17.60;1.00;;;;;;8397982;28;20188;-63
2023/08/07 11:37:50;;;;;;;3.37;2.53;;;17.70;99.90;;;;;;8396679;28;20217;-63
2023/08/07 11:46:48;;;;;;;2.97;2.50;;;18.00;99.90;;;;;;8399441;28;20226;-64
2023/08/07 11:50:48;;;;;;;3.53;2.73;;;17.90;99.90;;;;;;8400895;28;20185;-62
2023/08/07 11:54:49;;;;;;;2.97;2.30;;;17.80;99.90;;;;;;8395211;28;20189;-63
2023/08/07 11:58:52;;;;;;;2.27;2.10;;;17.60;1.00;;;;;;8397864;28;20216;-66
2023/08/07 12:02:53;;;;;;;2.83;2.20;;;18.00;1.00;;;;;;8396687;28;20204;-65
2023/08/07 12:06:56;;;;;;;3.87;2.00;;;18.50;1.00;;;;;;8396618;28;20192;-65
2023/08/07 12:10:57;;;;;;;3.67;2.20;;;19.10;99.90;;;;;;8400062;28;20266;-64
2023/08/07 12:14:57;;;;;;;3.27;2.33;;;19.20;99.90;;;;;;8394560;28;20189;-65
2023/08/07 12:18:59;;;;;;;4.27;2.20;;;19.70;99.90;;;;;;8394859;28;20204;-64
2023/08/07 12:22:59;;;;;;;2.90;2.07;;;20.30;99.90;;;;;;8398361;28;20185;-65
2023/08/07 12:27:00;;;;;;;4.07;1.80;;;20.50;99.90;;;;;;8398661;28;20192;-65
2023/08/07 12:31:01;;;;;;;2.93;1.70;;;21.10;99.90;;;;;;8401341;28;20189;-65
2023/08/07 12:35:02;;;;;;;2.33;1.30;;;21.30;31.60;;;;;;8396333;28;20215;-64
2023/08/07 12:39:03;;;;;;;1.80;1.20;;;21.50;1.00;;;;;;8395825;28;20212;-66
2023/08/07 12:43:04;;;;;;;3.47;1.30;;;21.50;1.00;;;;;;8394670;28;20188;-64
2023/08/07 12:47:06;;;;;;;2.07;1.17;;;21.10;1.00;;;;;;8393085;28;20187;-64
2023/08/07 12:51:07;;;;;;;2.37;1.10;;;20.00;1.00;;;;;;8394650;28;20177;-64
2023/08/07 12:55:09;;;;;;;1.50;1.17;;;19.40;32.50;;;;;;8396369;28;20189;-64
2023/08/07 12:59:10;;;;;;;1.97;1.10;;;19.20;99.90;;;;;;8393567;28;20239;-64
2023/08/07 13:03:10;;;;;;;1.40;1.00;;;19.20;99.90;;;;;;8399081;28;21027;-66
2023/08/07 13:07:11;;;;;;;1.07;0.90;;;19.40;99.90;;;;;;8399454;28;20691;-63
2023/08/07 13:11:12;;;;;;;1.67;0.87;;;19.90;92.30;;;;;;8394158;28;20444;-62
2023/08/07 13:15:14;;;;;;;1.80;0.70;;;20.00;53.30;;;;;;8396015;28;20802;-65
2023/08/07 13:19:15;;;;;;;1.87;0.70;;;20.30;24.00;;;;;;8395420;28;20667;-64
2023/08/07 13:23:16;;;;;;;0.70;0.60;;;20.50;16.30;;;;;;8396802;28;20252;-69
2023/08/07 13:27:16;;;;;;;2.40;0.80;;;20.90;1.00;;;;;;8396290;28;20200;-67
2023/08/07 13:31:17;;;;;;;1.73;0.80;;;20.70;1.00;;;;;;8395023;28;20216;-65
2023/08/07 13:35:18;;;;;;;1.77;0.77;;;20.30;1.00;;;;;;8397883;28;20219;-66
2023/08/07 13:39:19;;;;;;;1.53;0.80;;;20.10;1.00;;;;;;8391610;28;20538;-66
2023/08/07 13:43:19;;;;;;;1.03;0.60;;;20.40;1.00;;;;;;8394322;28;20271;-65
2023/08/07 13:47:20;;;;;;;1.17;0.70;;;21.10;1.00;;;;;;8394695;28;20243;-66
2023/08/07 13:51:21;;;;;;;2.17;0.87;;;20.90;1.00;;;;;;8391369;28;20196;-66
2023/08/07 13:55:22;;;;;;;1.90;0.40;;;21.00;1.00;;;;;;8392294;28;20193;-65
2023/08/07 13:59:25;;;;;;;2.03;0.80;;;21.10;1.00;;;;;;8394974;28;20247;-68
2023/08/07 14:03:26;;;;;;;0.80;0.60;;;20.90;1.00;;;;;;8399492;28;20193;-66
2023/08/07 14:07:27;;;;;;;1.30;0.60;;;20.50;1.00;;;;;;8392437;28;20192;-65
2023/08/07 14:11:30;;;;;;;0.83;0.60;;;20.30;1.00;;;;;;8394457;28;20209;-66
2023/08/07 14:15:31;;;;;;;1.37;0.63;;;20.60;1.00;;;;;;8393639;28;20185;-68
2023/08/07 14:19:32;;;;;;;1.03;0.70;;;20.90;1.00;;;;;;8394928;28;20262;-66
2023/08/07 14:23:33;;;;;;;1.37;0.80;;;20.90;1.00;;;;;;8395801;28;20231;-64
2023/08/07 14:27:33;;;;;;;1.53;0.50;;;21.20;1.00;;;;;;8391991;28;20181;-67
2023/08/07 14:31:34;;;;;;;0.77;0.50;;;21.00;1.00;;;;;;8391593;28;20192;-64
2023/08/07 14:35:35;;;;;;;1.37;0.60;;;20.50;1.00;;;;;;8391219;28;20182;-63
2023/08/07 14:39:36;;;;;;;0.80;0.50;;;20.40;1.00;;;;;;8392465;28;20227;-64
2023/08/07 14:43:37;;;;;;;0.73;0.47;;;20.20;1.00;;;;;;8394578;28;20193;-65
2023/08/07 14:47:37;;;;;;;1.53;0.80;;;20.10;1.00;;;;;;8394910;28;20220;-67
2023/08/07 14:51:38;;;;;;;1.73;0.80;;;20.00;1.00;;;;;;8389951;28;20191;-64
2023/08/07 14:55:39;;;;;;;1.57;0.60;;;20.00;1.00;;;;;;8394557;28;20223;-65
2023/08/07 14:59:40;;;;;;;1.30;0.80;;;20.10;1.00;;;;;;8392809;28;20204;-66
2023/08/07 15:03:41;;;;;;;2.13;0.60;;;20.00;1.00;;;;;;8393256;28;20192;-64
2023/08/07 15:07:41;;;;;;;1.40;0.67;;;20.00;1.00;;;;;;8390728;28;20188;-64
2023/08/07 15:11:42;;;;;;;1.70;0.60;;;19.60;1.00;;;;;;8402078;28;20227;-63
2023/08/07 15:15:44;;;;;;;1.10;0.50;;;19.00;1.00;;;;;;8396915;28;20180;-64
2023/08/07 15:19:45;;;;;;;0.70;0.50;;;18.00;18.90;;;;;;8395895;28;20211;-63
2023/08/07 15:23:46;;;;;;;1.00;0.90;;;17.20;99.90;;;;;;8399947;28;20181;-62
2023/08/07 15:27:46;;;;;;;1.47;0.63;;;16.80;1.00;;;;;;8395477;28;20200;-64
2023/08/07 15:31:47;;;;;;;1.97;0.77;;;16.70;1.00;;;;;;8397940;28;20189;-64
2023/08/07 15:35:50;;;;;;;1.53;0.70;;;16.80;99.90;;;;;;8400080;28;20189;-66
2023/08/07 15:39:51;;;;;;;1.77;0.80;;;17.30;46.10;;;;;;8404841;28;20240;-65
2023/08/07 15:43:52;;;;;;;1.20;0.73;;;17.70;1.00;;;;;;8396553;28;20193;-66
2023/08/07 15:47:53;;;;;;;1.90;0.87;;;18.10;99.90;;;;;;8396251;28;20228;-66
2023/08/07 15:51:54;;;;;;;1.93;0.67;;;18.30;99.90;;;;;;8399275;28;20185;-66
2023/08/07 15:55:55;;;;;;;1.00;0.73;;;18.40;99.90;;;;;;8398400;28;20303;-65
2023/08/07 15:59:55;;;;;;;1.83;0.70;;;18.40;99.90;;;;;;8396653;28;20208;-65
2023/08/07 16:03:58;;;;;;;3.37;0.83;;;18.60;99.90;;;;;;8398003;28;20228;-65
2023/08/07 16:07:59;;;;;;;2.20;0.70;;;18.70;99.90;;;;;;8398348;28;20242;-67
2023/08/07 16:12:00;;;;;;;2.20;0.73;;;18.70;99.90;;;;;;8389521;28;20224;-65
2023/08/07 16:16:01;;;;;;;2.40;0.80;;;18.70;99.90;;;;;;8395161;28;20177;-67
2023/08/07 16:20:01;;;;;;;0.57;0.40;;;18.60;99.90;;;;;;8388625;28;20219;-67
2023/08/07 16:24:03;;;;;;;1.20;0.67;;;18.70;99.90;;;;;;8395704;28;20200;-65
2023/08/07 16:28:05;;;;;;;0.77;0.60;;;18.60;99.90;;;;;;8394843;28;20220;-68
2023/08/07 16:32:08;;;;;;;2.13;0.70;;;18.50;99.90;;;;;;8397567;28;20617;-66
2023/08/07 16:36:10;;;;;;;1.83;0.40;;;18.50;99.90;;;;;;8398310;28;20186;-66
2023/08/07 16:40:11;;;;;;;1.40;0.67;;;18.30;99.90;;;;;;8395835;28;20205;-67
2023/08/07 16:44:12;;;;;;;2.03;0.60;;;17.90;99.90;;;;;;8395763;28;20196;-68
2023/08/07 16:48:13;;;;;;;3.33;0.70;;;17.60;99.90;;;;;;8397384;28;20253;-66
2023/08/07 16:52:14;;;;;;;1.67;0.73;;;17.50;99.90;;;;;;8394230;28;20181;-65
2023/08/07 16:56:15;;;;;;;1.13;0.60;;;17.70;99.90;;;;;;8392301;28;20247;-64
2023/08/07 17:00:16;;;;;;;1.57;0.47;;;17.90;99.90;;;;;;8390844;28;20272;-65
2023/08/07 17:04:17;;;;;;;1.43;0.50;;;18.10;99.90;;;;;;8395014;28;20176;-63
2023/08/07 17:08:17;;;;;;;1.67;0.50;;;18.40;99.90;;;;;;8408741;27;20183;-64
2023/08/07 17:12:18;;;;;;;0.87;0.50;;;18.30;99.90;;;;;;8394764;28;20181;-64
2023/08/07 17:16:19;;;;;;;2.10;0.60;;;18.10;99.90;;;;;;8394063;28;20176;-63
2023/08/07 17:20:20;;;;;;;0.87;0.50;;;17.90;99.90;;;;;;8395696;28;20243;-65
2023/08/07 17:24:21;;;;;;;0.57;0.37;;;17.70;99.90;;;;;;8394446;28;20180;-64
2023/08/07 17:28:22;;;;;;;2.00;0.60;;;17.50;99.90;;;;;;8394645;28;20189;-64
2023/08/07 17:32:22;;;;;;;3.53;0.60;;;17.40;99.90;;;;;;8390954;28;20188;-64
2023/08/07 17:36:23;;;;;;;1.60;0.60;;;17.30;99.90;;;;;;8391541;28;20261;-64
2023/08/07 17:40:24;;;;;;;1.27;0.53;;;16.90;99.90;;;;;;8395018;28;20205;-66
2023/08/07 17:44:25;;;;;;;2.23;0.80;;;16.80;99.90;;;;;;8391529;28;20541;-66
2023/08/07 17:48:26;;;;;;;1.20;0.77;;;16.60;99.90;;;;;;8393956;28;20188;-63
2023/08/07 17:52:29;;;;;;;1.60;0.53;;;16.40;99.90;;;;;;8387975;28;20193;-62
2023/08/07 17:56:33;;;;;;;2.60;0.70;;;16.30;99.90;;;;;;8389400;28;20192;-66
2023/08/07 18:00:35;;;;;;;1.00;0.67;;;16.20;99.90;;;;;;8390286;28;20200;-64
2023/08/07 18:04:35;;;;;;;2.10;0.70;;;16.10;99.90;;;;;;8396422;28;20188;-65
2023/08/07 18:08:36;;;;;;;1.67;0.77;;;16.30;99.90;;;;;;8392423;28;20211;-65
2023/08/07 18:12:37;;;;;;;1.87;0.90;;;16.20;99.90;;;;;;8396430;28;20185;-66
2023/08/07 18:16:38;;;;;;;2.47;0.97;;;16.40;99.90;;;;;;8385871;28;20185;-64
2023/08/07 18:20:39;;;;;;;2.87;0.70;;;16.40;99.90;;;;;;8392887;28;20226;-63
2023/08/07 18:24:40;;;;;;;1.20;0.87;;;16.20;99.90;;;;;;8390585;28;20825;-62
2023/08/07 18:28:41;;;;;;;1.13;0.90;;;16.00;99.90;;;;;;8396194;28;20220;-65
2023/08/07 18:32:41;;;;;;;1.57;1.00;;;15.80;1.00;;;;;;8392567;28;20212;-65
2023/08/07 18:36:43;;;;;;;1.20;0.63;;;15.60;1.00;;;;;;8393477;28;20242;-65
2023/08/07 18:40:44;;;;;;;2.47;0.80;;;15.50;1.00;;;;;;8394287;28;20311;-65
2023/08/07 18:44:44;;;;;;;1.00;0.60;;;15.30;1.00;;;;;;8392666;28;20203;-64
2023/08/07 18:48:45;;;;;;;1.63;1.00;;;15.10;51.40;;;;;;8412928;27;20188;-63
2023/08/07 18:52:46;;;;;;;1.30;0.80;;;15.00;99.90;;;;;;8387958;28;20185;-65
2023/08/07 18:56:48;;;;;;;4.03;1.20;;;14.90;99.90;;;;;;8394773;28;20249;-62
2023/08/07 19:00:49;;;;;;;4.10;1.20;;;14.70;99.90;;;;;;8399245;28;20251;-63
2023/08/07 19:04:49;;;;;;;2.17;0.90;;;14.60;99.90;;;;;;8402723;28;20181;-65
2023/08/07 19:08:50;;;;;;;3.07;1.20;;;14.60;99.90;;;;;;8398695;28;20219;-63
2023/08/07 19:12:51;;;;;;;6.57;1.07;;;14.40;99.90;;;;;;8398688;28;20211;-66
2023/08/07 19:16:52;;;;;;;3.27;1.00;;;14.20;99.90;;;;;;8398267;28;20217;-65
2023/08/07 19:20:54;;;;;;;3.97;1.03;;;14.20;99.90;;;;;;8399808;28;20254;-65
2023/08/07 19:24:57;;;;;;;4.17;1.43;;;14.10;99.90;;;;;;8399799;28;20185;-62
2023/08/07 19:28:58;;;;;;;3.73;1.47;;;14.00;99.90;;;;;;8395855;28;20267;-64
2023/08/07 19:32:58;;;;;;;3.10;1.20;;;13.90;99.90;;;;;;8397938;28;20267;-62
2023/08/07 19:36:59;;;;;;;4.00;1.17;;;13.90;99.90;;;;;;8395352;28;20189;-65
2023/08/07 19:41:00;;;;;;;2.07;1.17;;;13.90;99.90;;;;;;8396864;28;20238;-64
2023/08/07 19:45:01;;;;;;;4.63;1.33;;;13.80;99.90;;;;;;8398867;28;20199;-61
2023/08/07 19:49:02;;;;;;;4.63;1.30;;;13.80;99.90;;;;;;8397147;28;20185;-64
2023/08/07 19:53:03;;;;;;;2.23;1.60;;;13.70;1.00;;;;;;8398567;28;20251;-64
2023/08/07 19:57:04;;;;;;;4.40;1.40;;;13.70;1.00;;;;;;8400848;28;20204;-64
2023/08/07 20:01:05;;;;;;;4.30;1.23;;;13.60;1.00;;;;;;8390373;28;20187;-63
2023/08/07 20:05:06;;;;;;;2.87;1.60;;;13.50;1.00;;;;;;8395283;28;20188;-65
2023/08/07 20:09:07;;;;;;;2.90;1.53;;;13.50;1.00;;;;;;8392005;28;20204;-62
2023/08/07 20:13:08;;;;;;;5.30;1.50;;;13.50;1.00;;;;;;8394458;28;20211;-69
2023/08/07 20:17:08;;;;;;;3.60;1.63;;;13.50;99.90;;;;;;8395754;28;20216;-67
2023/08/07 20:21:09;;;;;;;2.03;1.50;;;13.50;99.90;;;;;;8389655;28;20181;-65
2023/08/07 20:25:10;;;;;;;2.83;1.30;;;13.40;99.90;;;;;;8395872;28;20185;-65
2023/08/07 20:29:11;;;;;;;5.93;1.97;;;13.40;99.90;;;;;;8392941;28;20195;-64
2023/08/07 20:33:12;;;;;;;7.10;1.70;;;13.30;99.90;;;;;;8398970;28;20199;-61
2023/08/07 20:37:12;;;;;;;3.23;1.60;;;13.30;99.90;;;;;;8394018;28;20261;-64
2023/08/07 20:41:13;;;;;;;5.20;1.73;;;13.20;99.90;;;;;;8391604;28;20205;-65
2023/08/07 20:45:14;;;;;;;5.43;2.07;;;13.20;99.90;;;;;;8395397;28;20203;-63
2023/08/07 20:49:15;;;;;;;4.13;1.80;;;13.10;99.90;;;;;;8393147;28;20235;-63
2023/08/07 20:53:16;;;;;;;7.33;1.80;;;13.20;99.90;;;;;;8393924;28;20267;-64
2023/08/07 20:57:17;;;;;;;3.63;1.73;;;13.20;99.90;;;;;;8395288;28;20212;-63
2023/08/07 21:01:18;;;;;;;5.30;1.97;;;13.20;99.90;;;;;;8394182;28;20199;-62
2023/08/07 21:05:18;;;;;;;5.10;1.80;;;13.10;99.90;;;;;;8394384;28;20180;-63